sensor_id;sensor_type;location;lat;lon;timestamp;P1;durP1;ratioP1;P2;durP2;ratioP2
30824;SDS011;17550;45.486;12.222;2023-03-01T00:01:25;35.13;;;18.73;;
30824;SDS011;17550;45.486;12.222;2023-03-01T00:03:55;35.15;;;18.63;;
30824;SDS011;17550;45.486;12.222;2023-03-01T00:06:22;34.22;;;18.67;;
30824;SDS011;17550;45.486;12.222;2023-03-01T00:08:48;39.38;;;20.58;;
30824;SDS011;17550;45.486;12.222;2023-03-01T00:11:15;35.53;;;18.70;;
30824;SDS011;17550;45.486;12.222;2023-03-01T00:13:43;41.67;;;19.98;;
30824;SDS011;17550;45.486;12.222;2023-03-01T00:16:11;35.33;;;20.38;;
30824;SDS011;17550;45.486;12.222;2023-03-01T00:18:39;39.88;;;20.35;;
30824;SDS011;17550;45.486;12.222;2023-03-01T00:21:05;35.25;;;19.73;;
30824;SDS011;17550;45.486;12.222;2023-03-01T00:23:31;37.95;;;19.90;;
30824;SDS011;17550;45.486;12.222;2023-03-01T00:25:58;33.83;;;18.90;;
30824;SDS011;17550;45.486;12.222;2023-03-01T00:28:24;35.95;;;18.92;;
30824;SDS011;17550;45.486;12.222;2023-03-01T00:30:49;38.08;;;19.75;;
30824;SDS011;17550;45.486;12.222;2023-03-01T00:33:15;37.53;;;20.20;;
30824;SDS011;17550;45.486;12.222;2023-03-01T00:35:41;42.22;;;19.40;;
30824;SDS011;17550;45.486;12.222;2023-03-01T00:38:06;35.58;;;18.60;;
30824;SDS011;17550;45.486;12.222;2023-03-01T00:40:33;35.45;;;18.17;;
30824;SDS011;17550;45.486;12.222;2023-03-01T00:43:00;34.70;;;19.02;;
30824;SDS011;17550;45.486;12.222;2023-03-01T00:45:26;35.63;;;18.77;;
30824;SDS011;17550;45.486;12.222;2023-03-01T00:47:53;39.67;;;19.55;;
30824;SDS011;17550;45.486;12.222;2023-03-01T00:50:19;37.65;;;18.45;;
30824;SDS011;17550;45.486;12.222;2023-03-01T00:52:45;34.30;;;19.48;;
30824;SDS011;17550;45.486;12.222;2023-03-01T00:55:11;36.33;;;20.00;;
30824;SDS011;17550;45.486;12.222;2023-03-01T00:57:37;30.77;;;18.05;;
30824;SDS011;17550;45.486;12.222;2023-03-01T01:00:04;36.00;;;18.65;;
30824;SDS011;17550;45.486;12.222;2023-03-01T01:02:32;39.92;;;19.20;;
30824;SDS011;17550;45.486;12.222;2023-03-01T01:04:58;35.85;;;19.30;;
30824;SDS011;17550;45.486;12.222;2023-03-01T01:07:24;35.22;;;18.05;;
30824;SDS011;17550;45.486;12.222;2023-03-01T01:09:50;31.42;;;17.60;;
30824;SDS011;17550;45.486;12.222;2023-03-01T01:12:16;33.38;;;18.83;;
30824;SDS011;17550;45.486;12.222;2023-03-01T01:14:41;31.67;;;16.90;;
30824;SDS011;17550;45.486;12.222;2023-03-01T01:17:07;36.00;;;18.50;;
30824;SDS011;17550;45.486;12.222;2023-03-01T01:19:34;28.02;;;15.32;;
30824;SDS011;17550;45.486;12.222;2023-03-01T01:21:59;28.08;;;15.52;;
30824;SDS011;17550;45.486;12.222;2023-03-01T01:24:25;32.97;;;16.55;;
30824;SDS011;17550;45.486;12.222;2023-03-01T01:26:51;30.15;;;16.42;;
30824;SDS011;17550;45.486;12.222;2023-03-01T01:29:17;32.60;;;15.75;;
30824;SDS011;17550;45.486;12.222;2023-03-01T01:31:42;29.08;;;15.35;;
30824;SDS011;17550;45.486;12.222;2023-03-01T01:34:12;30.27;;;15.85;;
30824;SDS011;17550;45.486;12.222;2023-03-01T01:36:42;29.15;;;16.13;;
30824;SDS011;17550;45.486;12.222;2023-03-01T01:39:08;26.05;;;15.02;;
30824;SDS011;17550;45.486;12.222;2023-03-01T01:41:38;27.05;;;14.95;;
30824;SDS011;17550;45.486;12.222;2023-03-01T01:44:17;27.58;;;14.90;;
30824;SDS011;17550;45.486;12.222;2023-03-01T01:47:04;25.15;;;14.20;;
30824;SDS011;17550;45.486;12.222;2023-03-01T01:49:41;27.48;;;14.77;;
30824;SDS011;17550;45.486;12.222;2023-03-01T01:54:44;30.08;;;15.30;;
30824;SDS011;17550;45.486;12.222;2023-03-01T01:57:39;29.27;;;15.45;;
30824;SDS011;17550;45.486;12.222;2023-03-01T02:00:09;27.30;;;14.85;;
30824;SDS011;17550;45.486;12.222;2023-03-01T02:02:38;25.30;;;14.27;;
30824;SDS011;17550;45.486;12.222;2023-03-01T02:05:08;30.58;;;15.23;;
30824;SDS011;17550;45.486;12.222;2023-03-01T02:07:51;28.58;;;14.82;;
30824;SDS011;17550;45.486;12.222;2023-03-01T02:10:17;27.65;;;14.90;;
30824;SDS011;17550;45.486;12.222;2023-03-01T02:12:46;30.00;;;15.48;;
30824;SDS011;17550;45.486;12.222;2023-03-01T02:15:12;27.95;;;14.55;;
30824;SDS011;17550;45.486;12.222;2023-03-01T02:17:38;26.10;;;14.57;;
30824;SDS011;17550;45.486;12.222;2023-03-01T02:22:50;28.60;;;16.63;;
30824;SDS011;17550;45.486;12.222;2023-03-01T02:26:01;31.70;;;16.00;;
30824;SDS011;17550;45.486;12.222;2023-03-01T02:28:29;31.17;;;17.38;;
30824;SDS011;17550;45.486;12.222;2023-03-01T02:30:55;30.52;;;16.95;;
30824;SDS011;17550;45.486;12.222;2023-03-01T02:33:39;36.83;;;16.75;;
30824;SDS011;17550;45.486;12.222;2023-03-01T02:36:09;31.83;;;16.35;;
30824;SDS011;17550;45.486;12.222;2023-03-01T02:38:43;28.77;;;16.33;;
30824;SDS011;17550;45.486;12.222;2023-03-01T02:41:10;29.33;;;15.48;;
30824;SDS011;17550;45.486;12.222;2023-03-01T02:43:40;29.98;;;15.25;;
30824;SDS011;17550;45.486;12.222;2023-03-01T02:46:13;26.33;;;15.00;;
30824;SDS011;17550;45.486;12.222;2023-03-01T02:48:43;27.17;;;15.15;;
30824;SDS011;17550;45.486;12.222;2023-03-01T02:56:38;21.83;;;13.88;;
30824;SDS011;17550;45.486;12.222;2023-03-01T02:59:05;26.33;;;13.82;;
30824;SDS011;17550;45.486;12.222;2023-03-01T03:01:31;26.70;;;14.77;;
30824;SDS011;17550;45.486;12.222;2023-03-01T03:04:06;24.93;;;13.87;;
30824;SDS011;17550;45.486;12.222;2023-03-01T03:06:34;24.27;;;13.77;;
30824;SDS011;17550;45.486;12.222;2023-03-01T03:09:00;22.40;;;12.85;;
30824;SDS011;17550;45.486;12.222;2023-03-01T03:11:27;24.75;;;13.30;;
30824;SDS011;17550;45.486;12.222;2023-03-01T03:13:53;27.85;;;13.43;;
30824;SDS011;17550;45.486;12.222;2023-03-01T03:16:19;25.73;;;13.50;;
30824;SDS011;17550;45.486;12.222;2023-03-01T03:18:45;24.80;;;12.63;;
30824;SDS011;17550;45.486;12.222;2023-03-01T03:21:12;22.25;;;13.27;;
30824;SDS011;17550;45.486;12.222;2023-03-01T03:23:38;26.20;;;13.38;;
30824;SDS011;17550;45.486;12.222;2023-03-01T03:26:04;21.60;;;13.55;;
30824;SDS011;17550;45.486;12.222;2023-03-01T03:28:31;23.77;;;12.88;;
30824;SDS011;17550;45.486;12.222;2023-03-01T03:30:57;22.02;;;13.35;;
30824;SDS011;17550;45.486;12.222;2023-03-01T03:33:23;22.85;;;12.70;;
30824;SDS011;17550;45.486;12.222;2023-03-01T03:35:49;24.38;;;12.95;;
30824;SDS011;17550;45.486;12.222;2023-03-01T03:38:16;23.00;;;12.82;;
30824;SDS011;17550;45.486;12.222;2023-03-01T03:40:51;21.88;;;12.55;;
30824;SDS011;17550;45.486;12.222;2023-03-01T03:43:26;22.42;;;12.68;;
30824;SDS011;17550;45.486;12.222;2023-03-01T03:45:52;19.83;;;12.35;;
30824;SDS011;17550;45.486;12.222;2023-03-01T03:48:19;20.52;;;12.02;;
30824;SDS011;17550;45.486;12.222;2023-03-01T03:50:52;25.48;;;12.43;;
30824;SDS011;17550;45.486;12.222;2023-03-01T03:53:20;21.92;;;12.60;;
30824;SDS011;17550;45.486;12.222;2023-03-01T03:55:47;19.92;;;11.93;;
30824;SDS011;17550;45.486;12.222;2023-03-01T03:58:14;24.20;;;13.27;;
30824;SDS011;17550;45.486;12.222;2023-03-01T04:00:42;20.67;;;12.00;;
30824;SDS011;17550;45.486;12.222;2023-03-01T04:03:09;24.00;;;13.43;;
30824;SDS011;17550;45.486;12.222;2023-03-01T04:05:38;29.80;;;14.75;;
30824;SDS011;17550;45.486;12.222;2023-03-01T04:08:04;29.70;;;14.30;;
30824;SDS011;17550;45.486;12.222;2023-03-01T04:10:37;24.05;;;13.13;;
30824;SDS011;17550;45.486;12.222;2023-03-01T04:13:05;25.98;;;14.05;;
30824;SDS011;17550;45.486;12.222;2023-03-01T04:15:33;27.65;;;14.57;;
30824;SDS011;17550;45.486;12.222;2023-03-01T04:17:58;32.30;;;15.75;;
30824;SDS011;17550;45.486;12.222;2023-03-01T04:20:26;27.85;;;14.77;;
30824;SDS011;17550;45.486;12.222;2023-03-01T04:22:58;27.80;;;15.23;;
30824;SDS011;17550;45.486;12.222;2023-03-01T04:25:24;24.83;;;14.77;;
30824;SDS011;17550;45.486;12.222;2023-03-01T04:27:50;28.20;;;15.48;;
30824;SDS011;17550;45.486;12.222;2023-03-01T04:30:15;31.35;;;14.85;;
30824;SDS011;17550;45.486;12.222;2023-03-01T04:32:41;31.77;;;15.23;;
30824;SDS011;17550;45.486;12.222;2023-03-01T04:35:07;26.00;;;15.18;;
30824;SDS011;17550;45.486;12.222;2023-03-01T04:37:33;25.83;;;14.65;;
30824;SDS011;17550;45.486;12.222;2023-03-01T04:40:00;29.00;;;15.57;;
30824;SDS011;17550;45.486;12.222;2023-03-01T04:42:32;33.20;;;15.75;;
30824;SDS011;17550;45.486;12.222;2023-03-01T04:44:58;30.50;;;15.15;;
30824;SDS011;17550;45.486;12.222;2023-03-01T04:47:24;29.05;;;15.45;;
30824;SDS011;17550;45.486;12.222;2023-03-01T04:49:49;25.45;;;15.57;;
30824;SDS011;17550;45.486;12.222;2023-03-01T04:52:15;29.08;;;15.88;;
30824;SDS011;17550;45.486;12.222;2023-03-01T04:54:41;28.30;;;14.27;;
30824;SDS011;17550;45.486;12.222;2023-03-01T04:57:08;25.15;;;13.80;;
30824;SDS011;17550;45.486;12.222;2023-03-01T04:59:33;26.95;;;13.85;;
30824;SDS011;17550;45.486;12.222;2023-03-01T05:02:01;25.80;;;14.75;;
30824;SDS011;17550;45.486;12.222;2023-03-01T05:04:26;24.83;;;13.82;;
30824;SDS011;17550;45.486;12.222;2023-03-01T05:06:52;26.38;;;15.27;;
30824;SDS011;17550;45.486;12.222;2023-03-01T05:09:18;26.55;;;14.45;;
30824;SDS011;17550;45.486;12.222;2023-03-01T05:11:44;28.52;;;14.38;;
30824;SDS011;17550;45.486;12.222;2023-03-01T05:14:10;30.95;;;14.48;;
30824;SDS011;17550;45.486;12.222;2023-03-01T05:16:35;27.98;;;14.90;;
30824;SDS011;17550;45.486;12.222;2023-03-01T05:19:02;28.23;;;15.05;;
30824;SDS011;17550;45.486;12.222;2023-03-01T05:21:40;31.75;;;15.15;;
30824;SDS011;17550;45.486;12.222;2023-03-01T05:24:25;24.38;;;13.77;;
30824;SDS011;17550;45.486;12.222;2023-03-01T05:26:51;31.27;;;14.38;;
30824;SDS011;17550;45.486;12.222;2023-03-01T05:29:18;32.60;;;14.85;;
30824;SDS011;17550;45.486;12.222;2023-03-01T05:31:50;28.08;;;14.45;;
30824;SDS011;17550;45.486;12.222;2023-03-01T05:34:22;27.92;;;13.60;;
30824;SDS011;17550;45.486;12.222;2023-03-01T05:36:53;28.92;;;14.30;;
30824;SDS011;17550;45.486;12.222;2023-03-01T05:39:20;34.90;;;16.15;;
30824;SDS011;17550;45.486;12.222;2023-03-01T05:41:52;30.02;;;15.82;;
30824;SDS011;17550;45.486;12.222;2023-03-01T05:44:19;29.15;;;14.88;;
30824;SDS011;17550;45.486;12.222;2023-03-01T05:46:45;30.85;;;15.52;;
30824;SDS011;17550;45.486;12.222;2023-03-01T05:49:11;29.52;;;14.65;;
30824;SDS011;17550;45.486;12.222;2023-03-01T05:51:38;28.20;;;15.43;;
30824;SDS011;17550;45.486;12.222;2023-03-01T05:54:04;24.45;;;14.32;;
30824;SDS011;17550;45.486;12.222;2023-03-01T05:56:32;27.48;;;15.30;;
30824;SDS011;17550;45.486;12.222;2023-03-01T05:59:01;27.83;;;14.70;;
30824;SDS011;17550;45.486;12.222;2023-03-01T06:01:29;28.58;;;14.45;;
30824;SDS011;17550;45.486;12.222;2023-03-01T06:03:55;27.15;;;14.23;;
30824;SDS011;17550;45.486;12.222;2023-03-01T06:06:21;28.70;;;15.30;;
30824;SDS011;17550;45.486;12.222;2023-03-01T06:08:48;30.30;;;14.35;;
30824;SDS011;17550;45.486;12.222;2023-03-01T06:11:14;30.65;;;14.82;;
30824;SDS011;17550;45.486;12.222;2023-03-01T06:13:41;27.10;;;14.35;;
30824;SDS011;17550;45.486;12.222;2023-03-01T06:16:10;26.05;;;13.77;;
30824;SDS011;17550;45.486;12.222;2023-03-01T06:18:37;23.50;;;13.05;;
30824;SDS011;17550;45.486;12.222;2023-03-01T06:21:03;26.05;;;13.80;;
30824;SDS011;17550;45.486;12.222;2023-03-01T06:23:29;21.98;;;13.60;;
30824;SDS011;17550;45.486;12.222;2023-03-01T06:25:55;23.98;;;14.32;;
30824;SDS011;17550;45.486;12.222;2023-03-01T06:28:20;28.35;;;13.60;;
30824;SDS011;17550;45.486;12.222;2023-03-01T06:30:47;24.88;;;13.13;;
30824;SDS011;17550;45.486;12.222;2023-03-01T06:33:12;25.75;;;14.07;;
30824;SDS011;17550;45.486;12.222;2023-03-01T06:35:38;25.50;;;13.38;;
30824;SDS011;17550;45.486;12.222;2023-03-01T06:38:04;32.47;;;13.82;;
30824;SDS011;17550;45.486;12.222;2023-03-01T06:40:30;23.52;;;13.30;;
30824;SDS011;17550;45.486;12.222;2023-03-01T06:42:56;24.40;;;13.48;;
30824;SDS011;17550;45.486;12.222;2023-03-01T06:45:23;26.70;;;13.38;;
30824;SDS011;17550;45.486;12.222;2023-03-01T06:47:49;28.52;;;12.63;;
30824;SDS011;17550;45.486;12.222;2023-03-01T06:50:16;24.67;;;12.30;;
30824;SDS011;17550;45.486;12.222;2023-03-01T06:52:42;30.98;;;12.80;;
30824;SDS011;17550;45.486;12.222;2023-03-01T06:55:09;26.10;;;12.45;;
30824;SDS011;17550;45.486;12.222;2023-03-01T06:57:36;23.60;;;12.48;;
30824;SDS011;17550;45.486;12.222;2023-03-01T07:00:03;28.65;;;11.68;;
30824;SDS011;17550;45.486;12.222;2023-03-01T07:02:30;19.00;;;11.98;;
30824;SDS011;17550;45.486;12.222;2023-03-01T07:04:56;21.33;;;12.38;;
30824;SDS011;17550;45.486;12.222;2023-03-01T07:07:22;23.27;;;11.38;;
30824;SDS011;17550;45.486;12.222;2023-03-01T07:09:48;24.50;;;11.15;;
30824;SDS011;17550;45.486;12.222;2023-03-01T07:12:14;21.42;;;11.80;;
30824;SDS011;17550;45.486;12.222;2023-03-01T07:14:40;24.42;;;12.43;;
30824;SDS011;17550;45.486;12.222;2023-03-01T07:17:06;22.70;;;11.70;;
30824;SDS011;17550;45.486;12.222;2023-03-01T07:19:32;24.25;;;13.30;;
30824;SDS011;17550;45.486;12.222;2023-03-01T07:21:57;36.38;;;12.55;;
30824;SDS011;17550;45.486;12.222;2023-03-01T07:24:23;27.27;;;11.40;;
30824;SDS011;17550;45.486;12.222;2023-03-01T07:26:49;52.88;;;20.88;;
30824;SDS011;17550;45.486;12.222;2023-03-01T07:29:15;29.95;;;15.13;;
30824;SDS011;17550;45.486;12.222;2023-03-01T07:31:42;30.00;;;13.23;;
30824;SDS011;17550;45.486;12.222;2023-03-01T07:34:08;21.98;;;11.50;;
30824;SDS011;17550;45.486;12.222;2023-03-01T07:36:33;23.92;;;11.88;;
30824;SDS011;17550;45.486;12.222;2023-03-01T07:38:59;24.60;;;11.50;;
30824;SDS011;17550;45.486;12.222;2023-03-01T07:41:27;25.45;;;11.50;;
30824;SDS011;17550;45.486;12.222;2023-03-01T07:43:53;16.80;;;9.90;;
30824;SDS011;17550;45.486;12.222;2023-03-01T07:46:19;19.55;;;10.18;;
30824;SDS011;17550;45.486;12.222;2023-03-01T07:48:47;18.02;;;9.95;;
30824;SDS011;17550;45.486;12.222;2023-03-01T07:51:13;22.20;;;10.23;;
30824;SDS011;17550;45.486;12.222;2023-03-01T07:53:39;16.52;;;10.35;;
30824;SDS011;17550;45.486;12.222;2023-03-01T07:56:05;24.40;;;10.35;;
30824;SDS011;17550;45.486;12.222;2023-03-01T07:58:34;19.92;;;9.90;;
30824;SDS011;17550;45.486;12.222;2023-03-01T08:01:01;17.35;;;9.48;;
30824;SDS011;17550;45.486;12.222;2023-03-01T08:03:31;18.80;;;10.48;;
30824;SDS011;17550;45.486;12.222;2023-03-01T08:05:59;27.10;;;11.55;;
30824;SDS011;17550;45.486;12.222;2023-03-01T08:08:26;18.88;;;9.80;;
30824;SDS011;17550;45.486;12.222;2023-03-01T08:10:55;23.35;;;10.25;;
30824;SDS011;17550;45.486;12.222;2023-03-01T08:13:22;18.75;;;10.02;;
30824;SDS011;17550;45.486;12.222;2023-03-01T08:15:50;21.27;;;9.23;;
30824;SDS011;17550;45.486;12.222;2023-03-01T08:18:17;17.02;;;9.48;;
30824;SDS011;17550;45.486;12.222;2023-03-01T08:20:44;18.17;;;9.32;;
30824;SDS011;17550;45.486;12.222;2023-03-01T08:23:10;17.80;;;9.82;;
30824;SDS011;17550;45.486;12.222;2023-03-01T08:25:36;21.65;;;10.02;;
30824;SDS011;17550;45.486;12.222;2023-03-01T08:28:02;21.58;;;10.02;;
30824;SDS011;17550;45.486;12.222;2023-03-01T08:30:27;16.52;;;9.23;;
30824;SDS011;17550;45.486;12.222;2023-03-01T08:32:53;24.60;;;10.90;;
30824;SDS011;17550;45.486;12.222;2023-03-01T08:35:19;16.67;;;10.75;;
30824;SDS011;17550;45.486;12.222;2023-03-01T08:37:45;20.48;;;10.45;;
30824;SDS011;17550;45.486;12.222;2023-03-01T08:40:11;21.88;;;10.07;;
30824;SDS011;17550;45.486;12.222;2023-03-01T08:42:38;18.63;;;9.68;;
30824;SDS011;17550;45.486;12.222;2023-03-01T08:45:05;23.90;;;10.45;;
30824;SDS011;17550;45.486;12.222;2023-03-01T08:47:31;20.63;;;9.98;;
30824;SDS011;17550;45.486;12.222;2023-03-01T08:49:58;19.45;;;9.80;;
30824;SDS011;17550;45.486;12.222;2023-03-01T08:52:25;19.70;;;9.20;;
30824;SDS011;17550;45.486;12.222;2023-03-01T08:54:51;17.70;;;9.77;;
30824;SDS011;17550;45.486;12.222;2023-03-01T08:57:17;22.35;;;9.10;;
30824;SDS011;17550;45.486;12.222;2023-03-01T08:59:43;20.67;;;9.77;;
30824;SDS011;17550;45.486;12.222;2023-03-01T09:02:13;17.48;;;9.73;;
30824;SDS011;17550;45.486;12.222;2023-03-01T09:04:40;21.52;;;9.98;;
30824;SDS011;17550;45.486;12.222;2023-03-01T09:07:06;15.95;;;8.82;;
30824;SDS011;17550;45.486;12.222;2023-03-01T09:09:32;16.48;;;8.25;;
30824;SDS011;17550;45.486;12.222;2023-03-01T09:11:58;17.42;;;8.23;;
30824;SDS011;17550;45.486;12.222;2023-03-01T09:14:23;21.85;;;9.98;;
30824;SDS011;17550;45.486;12.222;2023-03-01T09:16:49;19.35;;;9.70;;
30824;SDS011;17550;45.486;12.222;2023-03-01T09:19:16;12.45;;;6.00;;
30824;SDS011;17550;45.486;12.222;2023-03-01T09:21:42;11.45;;;6.63;;
30824;SDS011;17550;45.486;12.222;2023-03-01T09:24:17;13.40;;;6.80;;
30824;SDS011;17550;45.486;12.222;2023-03-01T09:26:44;16.77;;;6.72;;
30824;SDS011;17550;45.486;12.222;2023-03-01T09:29:13;16.23;;;6.07;;
30824;SDS011;17550;45.486;12.222;2023-03-01T09:31:40;14.32;;;6.07;;
30824;SDS011;17550;45.486;12.222;2023-03-01T09:34:07;10.57;;;6.15;;
30824;SDS011;17550;45.486;12.222;2023-03-01T09:36:32;13.93;;;5.80;;
30824;SDS011;17550;45.486;12.222;2023-03-01T09:38:58;22.70;;;6.90;;
30824;SDS011;17550;45.486;12.222;2023-03-01T09:47:09;10.05;;;5.68;;
30824;SDS011;17550;45.486;12.222;2023-03-01T09:49:42;22.17;;;6.80;;
30824;SDS011;17550;45.486;12.222;2023-03-01T09:55:20;23.25;;;6.65;;
30824;SDS011;17550;45.486;12.222;2023-03-01T09:57:59;26.15;;;6.00;;
30824;SDS011;17550;45.486;12.222;2023-03-01T10:00:56;17.73;;;6.10;;
30824;SDS011;17550;45.486;12.222;2023-03-01T10:06:01;17.80;;;6.65;;
30824;SDS011;17550;45.486;12.222;2023-03-01T10:11:04;17.95;;;6.35;;
30824;SDS011;17550;45.486;12.222;2023-03-01T10:13:47;19.02;;;6.45;;
30824;SDS011;17550;45.486;12.222;2023-03-01T10:19:32;14.80;;;6.72;;
30824;SDS011;17550;45.486;12.222;2023-03-01T10:24:47;13.98;;;6.50;;
30824;SDS011;17550;45.486;12.222;2023-03-01T10:27:19;18.98;;;7.55;;
30824;SDS011;17550;45.486;12.222;2023-03-01T10:29:50;17.88;;;7.40;;
30824;SDS011;17550;45.486;12.222;2023-03-01T10:32:17;16.65;;;6.82;;
30824;SDS011;17550;45.486;12.222;2023-03-01T10:34:43;25.92;;;10.85;;
30824;SDS011;17550;45.486;12.222;2023-03-01T10:37:13;20.95;;;7.32;;
30824;SDS011;17550;45.486;12.222;2023-03-01T10:39:56;26.23;;;8.13;;
30824;SDS011;17550;45.486;12.222;2023-03-01T10:42:31;23.15;;;8.07;;
30824;SDS011;17550;45.486;12.222;2023-03-01T10:45:44;25.55;;;7.55;;
30824;SDS011;17550;45.486;12.222;2023-03-01T10:47:45;24.95;;;7.22;;
30824;SDS011;17550;45.486;12.222;2023-03-01T10:50:18;22.25;;;7.20;;
30824;SDS011;17550;45.486;12.222;2023-03-01T10:53:00;34.15;;;7.45;;
30824;SDS011;17550;45.486;12.222;2023-03-01T10:55:34;25.88;;;7.65;;
30824;SDS011;17550;45.486;12.222;2023-03-01T10:58:20;24.13;;;6.70;;
30824;SDS011;17550;45.486;12.222;2023-03-01T11:03:30;23.92;;;7.97;;
30824;SDS011;17550;45.486;12.222;2023-03-01T11:08:29;23.95;;;7.45;;
30824;SDS011;17550;45.486;12.222;2023-03-01T11:13:38;25.08;;;7.32;;
30824;SDS011;17550;45.486;12.222;2023-03-01T11:16:15;32.38;;;8.18;;
30824;SDS011;17550;45.486;12.222;2023-03-01T11:19:20;21.60;;;6.97;;
30824;SDS011;17550;45.486;12.222;2023-03-01T11:24:18;30.60;;;7.45;;
30824;SDS011;17550;45.486;12.222;2023-03-01T11:26:46;28.48;;;6.88;;
30824;SDS011;17550;45.486;12.222;2023-03-01T11:29:18;28.40;;;7.80;;
30824;SDS011;17550;45.486;12.222;2023-03-01T11:31:58;28.00;;;7.10;;
30824;SDS011;17550;45.486;12.222;2023-03-01T11:34:32;23.35;;;7.85;;
30824;SDS011;17550;45.486;12.222;2023-03-01T11:37:35;23.48;;;7.22;;
30824;SDS011;17550;45.486;12.222;2023-03-01T11:40:23;26.98;;;6.97;;
30824;SDS011;17550;45.486;12.222;2023-03-01T11:43:11;21.55;;;7.38;;
30824;SDS011;17550;45.486;12.222;2023-03-01T11:51:38;20.92;;;7.50;;
30824;SDS011;17550;45.486;12.222;2023-03-01T11:57:19;22.60;;;7.13;;
30824;SDS011;17550;45.486;12.222;2023-03-01T11:59:51;26.23;;;8.52;;
30824;SDS011;17550;45.486;12.222;2023-03-01T12:30:10;22.35;;;7.95;;
30824;SDS011;17550;45.486;12.222;2023-03-01T12:36:07;19.23;;;7.60;;
30824;SDS011;17550;45.486;12.222;2023-03-01T12:49:48;23.23;;;7.75;;
30824;SDS011;17550;45.486;12.222;2023-03-01T12:52:39;16.45;;;7.38;;
30824;SDS011;17550;45.486;12.222;2023-03-01T12:58:11;17.45;;;7.10;;
30824;SDS011;17550;45.486;12.222;2023-03-01T13:03:19;20.85;;;7.25;;
30824;SDS011;17550;45.486;12.222;2023-03-01T13:06:03;20.60;;;7.32;;
30824;SDS011;17550;45.486;12.222;2023-03-01T13:11:12;16.30;;;7.45;;
30824;SDS011;17550;45.486;12.222;2023-03-01T13:13:47;27.80;;;8.25;;
30824;SDS011;17550;45.486;12.222;2023-03-01T13:16:20;17.95;;;7.78;;
30824;SDS011;17550;45.486;12.222;2023-03-01T13:18:47;45.47;;;7.25;;
30824;SDS011;17550;45.486;12.222;2023-03-01T13:21:13;14.63;;;6.68;;
30824;SDS011;17550;45.486;12.222;2023-03-01T13:23:55;12.63;;;6.82;;
30824;SDS011;17550;45.486;12.222;2023-03-01T13:26:20;17.58;;;7.30;;
30824;SDS011;17550;45.486;12.222;2023-03-01T13:28:47;15.35;;;7.53;;
30824;SDS011;17550;45.486;12.222;2023-03-01T13:33:44;13.50;;;6.78;;
30824;SDS011;17550;45.486;12.222;2023-03-01T13:36:48;16.45;;;6.80;;
30824;SDS011;17550;45.486;12.222;2023-03-01T13:39:27;17.77;;;7.07;;
30824;SDS011;17550;45.486;12.222;2023-03-01T13:41:57;15.10;;;7.60;;
30824;SDS011;17550;45.486;12.222;2023-03-01T13:44:34;23.50;;;7.00;;
30824;SDS011;17550;45.486;12.222;2023-03-01T13:49:48;16.02;;;7.88;;
30824;SDS011;17550;45.486;12.222;2023-03-01T13:54:46;18.23;;;7.43;;
30824;SDS011;17550;45.486;12.222;2023-03-01T13:57:12;13.18;;;7.82;;
30824;SDS011;17550;45.486;12.222;2023-03-01T13:59:51;16.65;;;7.47;;
30824;SDS011;17550;45.486;12.222;2023-03-01T14:02:16;16.23;;;7.45;;
30824;SDS011;17550;45.486;12.222;2023-03-01T14:04:42;14.25;;;7.53;;
30824;SDS011;17550;45.486;12.222;2023-03-01T14:07:08;18.08;;;7.70;;
30824;SDS011;17550;45.486;12.222;2023-03-01T14:09:34;12.82;;;8.45;;
30824;SDS011;17550;45.486;12.222;2023-03-01T14:14:53;14.25;;;7.57;;
30824;SDS011;17550;45.486;12.222;2023-03-01T14:20:38;18.83;;;8.35;;
30824;SDS011;17550;45.486;12.222;2023-03-01T14:23:11;14.13;;;8.15;;
30824;SDS011;17550;45.486;12.222;2023-03-01T14:25:46;19.52;;;8.23;;
30824;SDS011;17550;45.486;12.222;2023-03-01T14:28:19;20.30;;;8.10;;
30824;SDS011;17550;45.486;12.222;2023-03-01T14:30:47;15.20;;;7.75;;
30824;SDS011;17550;45.486;12.222;2023-03-01T14:33:25;18.92;;;8.32;;
30824;SDS011;17550;45.486;12.222;2023-03-01T14:35:56;19.73;;;7.97;;
30824;SDS011;17550;45.486;12.222;2023-03-01T14:43:33;18.42;;;8.85;;
30824;SDS011;17550;45.486;12.222;2023-03-01T14:46:00;17.48;;;9.70;;
30824;SDS011;17550;45.486;12.222;2023-03-01T14:48:26;23.23;;;8.60;;
30824;SDS011;17550;45.486;12.222;2023-03-01T14:50:53;19.50;;;9.10;;
30824;SDS011;17550;45.486;12.222;2023-03-01T14:53:28;18.00;;;8.82;;
30824;SDS011;17550;45.486;12.222;2023-03-01T14:55:55;18.88;;;9.35;;
30824;SDS011;17550;45.486;12.222;2023-03-01T14:58:27;20.60;;;9.05;;
30824;SDS011;17550;45.486;12.222;2023-03-01T15:00:54;14.32;;;8.15;;
30824;SDS011;17550;45.486;12.222;2023-03-01T15:06:03;17.23;;;8.85;;
30824;SDS011;17550;45.486;12.222;2023-03-01T15:08:31;19.85;;;9.65;;
30824;SDS011;17550;45.486;12.222;2023-03-01T15:13:32;14.55;;;8.70;;
30824;SDS011;17550;45.486;12.222;2023-03-01T15:19:03;16.83;;;9.35;;
30824;SDS011;17550;45.486;12.222;2023-03-01T15:21:37;16.20;;;10.13;;
30824;SDS011;17550;45.486;12.222;2023-03-01T15:26:43;14.93;;;9.52;;
30824;SDS011;17550;45.486;12.222;2023-03-01T15:29:19;17.08;;;8.95;;
30824;SDS011;17550;45.486;12.222;2023-03-01T15:31:57;16.92;;;11.32;;
30824;SDS011;17550;45.486;12.222;2023-03-01T15:36:59;15.85;;;9.35;;
30824;SDS011;17550;45.486;12.222;2023-03-01T15:44:32;15.77;;;9.48;;
30824;SDS011;17550;45.486;12.222;2023-03-01T15:47:08;15.73;;;9.10;;
30824;SDS011;17550;45.486;12.222;2023-03-01T15:49:52;15.90;;;8.93;;
30824;SDS011;17550;45.486;12.222;2023-03-01T15:52:23;15.27;;;8.00;;
30824;SDS011;17550;45.486;12.222;2023-03-01T15:54:55;16.42;;;7.75;;
30824;SDS011;17550;45.486;12.222;2023-03-01T15:57:28;11.82;;;6.95;;
30824;SDS011;17550;45.486;12.222;2023-03-01T15:59:54;13.40;;;7.35;;
30824;SDS011;17550;45.486;12.222;2023-03-01T16:02:21;15.10;;;6.32;;
30824;SDS011;17550;45.486;12.222;2023-03-01T16:04:48;17.65;;;6.45;;
30824;SDS011;17550;45.486;12.222;2023-03-01T16:07:14;12.48;;;6.40;;
30824;SDS011;17550;45.486;12.222;2023-03-01T16:09:40;11.32;;;6.28;;
30824;SDS011;17550;45.486;12.222;2023-03-01T16:12:09;11.48;;;6.10;;
30824;SDS011;17550;45.486;12.222;2023-03-01T16:14:41;13.32;;;5.63;;
30824;SDS011;17550;45.486;12.222;2023-03-01T16:17:07;12.95;;;6.20;;
30824;SDS011;17550;45.486;12.222;2023-03-01T16:19:35;16.67;;;6.63;;
30824;SDS011;17550;45.486;12.222;2023-03-01T16:22:02;13.43;;;6.32;;
30824;SDS011;17550;45.486;12.222;2023-03-01T16:24:28;19.80;;;6.15;;
30824;SDS011;17550;45.486;12.222;2023-03-01T16:26:53;17.48;;;5.90;;
30824;SDS011;17550;45.486;12.222;2023-03-01T16:29:19;8.50;;;4.97;;
30824;SDS011;17550;45.486;12.222;2023-03-01T16:31:45;14.50;;;4.90;;
30824;SDS011;17550;45.486;12.222;2023-03-01T16:34:11;10.38;;;5.70;;
30824;SDS011;17550;45.486;12.222;2023-03-01T16:36:37;17.05;;;5.50;;
30824;SDS011;17550;45.486;12.222;2023-03-01T16:39:03;8.82;;;5.53;;
30824;SDS011;17550;45.486;12.222;2023-03-01T16:41:29;12.68;;;5.78;;
30824;SDS011;17550;45.486;12.222;2023-03-01T16:43:55;18.08;;;5.68;;